MAPA DE AEROPUERTO

INFORMACIÓN METAR y TAF

METAR FOR GCFV
ADDS - METARS form results

(1850 UTC 17 April 2021)
Data provider http://aviationweather.gov/metar/data/
 
METAR text: GCFV 171830Z 04015KT 9999 SCT035 21/16 Q1017
Conditions at: GCFV (FUERTEVENTURA AR, ES) observed 1830 UTC 17 April 2021
Temperature: 21.0°C (70°F)
Dewpoint: 16.0°C (61°F) [RH = 73%]
Pressure (altimeter): 30.03 inches Hg (1017.0 mb)
Winds: from the NE (40 degrees) at 17 MPH (15 knots; 7.7 m/s)
Visibility: 6 or more miles (10+ km)
Ceiling: at least 12,000 feet AGL
Clouds: scattered clouds at 3500 feet AGL
Weather: no significant weather observed at this time

METAR text: GCFV 171800Z 04015KT 9999 FEW035 21/17 Q1017
Conditions at: GCFV (FUERTEVENTURA AR, ES) observed 1800 UTC 17 April 2021
Temperature: 21.0°C (70°F)
Dewpoint: 17.0°C (63°F) [RH = 78%]
Pressure (altimeter): 30.03 inches Hg (1017.0 mb)
Winds: from the NE (40 degrees) at 17 MPH (15 knots; 7.7 m/s)
Visibility: 6 or more miles (10+ km)
Ceiling: at least 12,000 feet AGL
Clouds: few clouds at 3500 feet AGL
Weather: no significant weather observed at this time

Forecast for: GCFV (FUERTEVENTURA AR, ES)
Text: TAF GCFV 171400Z 1715/1815 06017KT 9999 SCT035 TX24/1814Z TN18/1806Z
Forecast period: 1500 to 1800 UTC 17 April 2021
Forecast type: FROM: standard forecast or significant change
Winds: from the ENE (60 degrees) at 20 MPH (17 knots; 8.7 m/s)
Visibility: 6 or more miles (10+ km)
Ceiling: at least 12,000 feet AGL
Clouds: scattered clouds at 3500 feet AGL
Weather: no significant weather forecast for this period
Text: BECMG 1718/1721 36011KT
Forecast period: 1800 UTC 17 April 2021 to 1500 UTC 18 April 2021
Forecast type: BECOMING: Conditions expected to become as follows by 2100 UTC 17 April 2021
Winds: from the N (360 degrees) at 13 MPH (11 knots; 5.7 m/s)
Visibility: 6 or more miles (10+ km)
Ceiling: at least 12,000 feet AGL
Clouds: scattered clouds at 3500 feet AGL
Weather: no significant weather forecast for this period